Time;durP1;ratioP1;P1;durP2;ratioP2;P2;SDS_P1;SDS_P2;PMS_P1;PMS_P2;Temp;Humidity;BMP_temperature;BMP_pressure;BME280_temperature;BME280_humidity;BME280_pressure;Samples;Min_cycle;Max_cycle;Signal;HPM_P1;HPM_P2
2022/03/22 00:01:01;;;;;;;18.27;13.35;;;7.30;50.00;;;6.76;49.04;101991.91;4990079;28;20042;-77
2022/03/22 00:03:29;;;;;;;18.38;14.05;;;7.20;49.70;;;6.44;50.07;101997.44;4972998;28;20104;-76
2022/03/22 00:05:58;;;;;;;18.30;14.18;;;7.20;49.90;;;6.25;52.16;101996.22;4989941;28;20057;-76
2022/03/22 00:08:25;;;;;;;17.08;13.20;;;7.10;50.40;;;6.43;53.34;102007.88;4989440;28;20392;-75
2022/03/22 00:11:01;;;;;;;18.90;14.15;;;6.90;51.50;;;6.44;54.75;101996.56;4976136;28;20050;-76
2022/03/22 00:13:29;;;;;;;19.23;14.35;;;6.80;52.20;;;6.21;55.44;102003.09;4956753;28;20046;-76
2022/03/22 00:15:56;;;;;;;23.00;13.27;;;6.80;52.30;;;6.00;56.88;101989.53;4990779;28;20055;-76
2022/03/22 00:18:44;;;;;;;16.08;12.43;;;7.50;53.00;;;5.89;58.13;101991.91;4989271;28;20785;-76
2022/03/22 00:21:14;;;;;;;17.77;13.43;;;7.00;53.00;;;5.92;58.91;101986.75;4989782;28;20050;-76
2022/03/22 00:23:42;;;;;;;17.40;13.43;;;7.40;53.80;;;5.87;58.09;101986.69;4988228;28;20423;-74
2022/03/22 00:26:09;;;;;;;17.48;13.32;;;6.40;53.10;;;5.98;57.23;101994.75;4989447;28;20122;-75
2022/03/22 00:28:37;;;;;;;18.85;13.48;;;6.40;53.10;;;5.79;58.90;101996.97;4989361;28;20053;-75
2022/03/22 00:31:04;;;;;;;18.05;12.30;;;6.40;53.60;;;5.99;58.60;101996.50;4973191;28;20054;-76
2022/03/22 00:33:31;;;;;;;17.52;13.48;;;6.40;53.60;;;5.81;60.06;102003.09;4988537;28;20050;-77
2022/03/22 00:35:59;;;;;;;20.13;13.60;;;6.60;54.50;;;5.70;58.24;101996.75;4989992;28;20053;-74
2022/03/22 00:38:26;;;;;;;20.65;13.40;;;6.30;54.00;;;5.65;58.48;102009.69;4973154;28;20124;-75
2022/03/22 00:40:53;;;;;;;15.70;13.48;;;6.20;53.70;;;5.56;58.79;102000.78;4990262;28;20044;-76
2022/03/22 00:43:21;;;;;;;19.08;13.20;;;6.10;53.90;;;5.50;59.90;101991.97;4988484;28;20074;-75
2022/03/22 00:46:05;;;;;;;17.05;12.85;;;6.10;54.20;;;5.50;59.75;102012.84;4988849;28;20069;-76
2022/03/22 00:48:33;;;;;;;18.23;13.35;;;6.00;54.40;;;5.50;60.48;102011.94;4989436;28;20464;-76
2022/03/22 00:51:00;;;;;;;20.25;15.30;;;5.90;54.90;;;5.51;59.20;102008.50;5001732;28;20171;-76
2022/03/22 00:53:30;;;;;;;19.98;13.60;;;6.30;55.00;;;5.36;59.27;102009.88;5007344;28;20123;-74
2022/03/22 00:55:57;;;;;;;;;;;5.90;54.80;;;5.38;58.30;102007.34;5008415;28;20068;-74
2022/03/22 00:58:30;;;;;;;18.48;13.82;;;5.80;54.60;;;5.18;61.37;102004.22;5008633;28;20033;-75
2022/03/22 01:00:57;;;;;;;21.00;14.10;;;5.80;55.40;;;5.06;61.02;102005.69;5009326;28;20041;-75
2022/03/22 01:03:27;;;;;;;15.70;12.85;;;5.70;55.80;;;4.93;64.67;102003.63;5007618;28;20407;-75
2022/03/22 01:05:59;;;;;;;17.50;13.73;;;5.60;55.90;;;4.95;62.87;102007.16;5023780;28;20060;-75
2022/03/22 01:08:29;;;;;;;19.17;13.65;;;6.30;56.60;;;4.95;65.92;102004.56;5008384;28;20050;-75
2022/03/22 01:10:59;;;;;;;24.42;14.32;;;6.90;57.90;;;4.86;69.60;102004.31;5008268;28;20034;-76
2022/03/22 01:13:27;;;;;;;20.50;14.40;;;5.40;57.90;;;4.78;68.45;102004.09;4991372;28;20458;-76
2022/03/22 01:15:54;;;;;;;22.70;16.85;;;5.80;58.30;;;4.83;68.31;101999.88;5008129;28;20092;-76
2022/03/22 01:18:23;;;;;;;21.08;16.08;;;5.30;58.40;;;4.79;65.17;102001.53;5009762;28;20042;-76
2022/03/22 01:20:51;;;;;;;23.00;19.02;;;5.40;58.00;;;4.63;66.34;101995.03;5009824;28;20072;-76
2022/03/22 01:23:19;;;;;;;21.35;16.63;;;5.20;58.20;;;4.57;68.24;101992.28;5007945;28;20042;-76
2022/03/22 01:25:47;;;;;;;19.90;15.77;;;5.20;59.10;;;4.54;68.62;101995.66;4992854;28;20056;-76
2022/03/22 01:28:16;;;;;;;21.98;15.40;;;6.30;59.60;;;4.58;66.29;101982.72;4994134;28;20054;-75
2022/03/22 01:30:43;;;;;;;19.25;14.55;;;5.90;59.30;;;4.62;66.53;101984.56;5007320;28;20096;-75
2022/03/22 01:33:15;;;;;;;18.98;13.75;;;5.10;59.40;;;4.45;66.03;101987.63;5008062;28;20125;-76
2022/03/22 01:35:42;;;;;;;20.80;14.07;;;5.00;59.20;;;4.24;66.87;101988.75;4991720;28;20046;-76
2022/03/22 01:38:10;;;;;;;16.77;12.75;;;5.00;59.60;;;4.21;67.17;101988.69;5004818;28;20041;-76
2022/03/22 01:40:38;;;;;;;17.15;12.60;;;4.90;59.40;;;4.08;70.71;101979.63;5005593;28;20072;-75
2022/03/22 01:43:06;;;;;;;19.55;13.73;;;4.80;60.90;;;4.15;71.16;101983.31;5006520;28;20073;-75
2022/03/22 01:45:34;;;;;;;19.10;13.35;;;4.70;61.30;;;4.11;73.03;101984.03;4993001;28;20073;-76
2022/03/22 01:48:04;;;;;;;20.83;14.32;;;4.70;62.20;;;4.00;71.77;101975.91;5005927;28;20046;-74
2022/03/22 01:50:32;;;;;;;17.65;13.52;;;4.70;62.40;;;3.98;73.49;101977.59;5005406;28;20115;-74
2022/03/22 01:53:00;;;;;;;20.95;13.82;;;4.60;62.80;;;3.90;71.46;101979.06;5006748;28;20539;-75
2022/03/22 01:55:29;;;;;;;20.52;14.75;;;4.60;62.60;;;3.94;70.93;101973.16;5007155;28;20046;-75
2022/03/22 01:57:57;;;;;;;18.88;13.90;;;4.50;62.70;;;3.98;69.12;101969.78;5009324;28;20044;-76
2022/03/22 02:00:25;;;;;;;21.42;13.85;;;4.50;62.60;;;4.02;70.09;101975.97;5009008;28;20061;-76
2022/03/22 02:05:51;;;;;;;22.17;13.48;;;4.50;62.70;;;4.01;67.33;101964.66;5004687;28;20091;-75
2022/03/22 02:08:21;;;;;;;16.45;13.38;;;4.60;62.80;;;4.02;67.17;101957.75;4983760;28;20451;-75
2022/03/22 02:10:49;;;;;;;19.05;13.25;;;4.50;62.90;;;4.01;67.57;101962.06;4991770;28;20136;-75
2022/03/22 02:13:16;;;;;;;18.70;13.10;;;4.70;63.50;;;3.97;65.03;101958.47;5005358;28;20064;-75
2022/03/22 02:15:49;;;;;;;21.33;14.25;;;4.50;62.50;;;3.95;66.45;101954.94;5005990;28;20134;-76
2022/03/22 02:18:17;;;;;;;18.48;14.57;;;4.60;63.40;;;3.71;66.49;101944.69;5007256;28;20045;-76
2022/03/22 02:20:46;;;;;;;18.85;14.50;;;4.50;62.80;;;3.66;65.73;101948.88;5007090;28;20132;-76
2022/03/22 02:23:21;;;;;;;18.90;14.15;;;4.50;61.80;;;3.66;68.07;101952.34;5007881;28;20045;-77
2022/03/22 02:25:49;;;;;;;19.25;13.57;;;4.40;63.10;;;3.69;69.64;101943.75;5006893;28;20060;-76
2022/03/22 02:28:20;;;;;;;19.58;13.80;;;4.30;64.50;;;3.67;70.63;101948.94;5007490;28;20061;-76
2022/03/22 02:30:52;;;;;;;18.15;13.82;;;5.60;65.60;;;3.68;71.10;101949.81;4991397;28;20107;-75
2022/03/22 02:33:20;;;;;;;16.92;13.65;;;4.30;65.70;;;3.60;72.47;101956.53;5006066;28;20462;-75
2022/03/22 02:35:47;;;;;;;20.25;15.07;;;4.20;66.30;;;3.69;74.42;101949.88;4989975;28;20045;-75
2022/03/22 02:38:15;;;;;;;18.02;13.18;;;4.20;67.20;;;3.62;73.19;101960.91;5007254;28;20065;-76
2022/03/22 02:40:42;;;;;;;19.92;13.93;;;4.40;67.10;;;3.46;72.98;101956.09;5008667;28;20581;-76
2022/03/22 02:43:09;;;;;;;21.27;14.55;;;4.30;66.20;;;3.38;75.40;101948.94;5013724;28;20578;-76
2022/03/22 02:45:36;;;;;;;24.00;15.48;;;6.10;68.40;;;3.32;76.73;101953.06;5012566;28;20457;-76
2022/03/22 02:48:04;;;;;;;20.33;15.07;;;4.20;68.10;;;3.32;79.41;101959.13;5013453;28;20470;-75
2022/03/22 02:50:31;;;;;;;17.52;13.60;;;4.00;69.60;;;3.26;81.91;101951.16;5014563;28;20130;-74
2022/03/22 02:53:00;;;;;;;19.42;14.45;;;4.10;70.80;;;3.28;81.19;101958.97;5012852;28;20049;-76
2022/03/22 02:55:28;;;;;;;19.63;13.98;;;5.40;72.20;;;3.12;85.18;101959.38;4996841;28;20080;-76
2022/03/22 02:57:55;;;;;;;22.48;14.68;;;3.90;72.20;;;3.00;92.84;101958.97;5014813;28;20507;-76
2022/03/22 03:00:24;;;;;;;16.67;12.45;;;3.90;74.40;;;2.94;92.77;101962.25;4996819;28;20076;-76
2022/03/22 03:02:53;;;;;;;19.85;14.23;;;5.10;76.40;;;2.98;92.04;101960.66;5012334;28;20153;-74
2022/03/22 03:05:21;;;;;;;21.30;14.03;;;3.70;76.20;;;2.93;90.54;101959.63;5013062;28;20045;-75
2022/03/22 03:07:51;;;;;;;20.42;13.52;;;3.70;76.50;;;2.89;89.83;101958.63;5012787;28;20334;-75
2022/03/22 03:10:19;;;;;;;18.98;15.20;;;3.70;76.70;;;2.82;90.56;101967.94;5013288;28;20100;-75
2022/03/22 03:12:47;;;;;;;21.58;15.70;;;3.50;77.70;;;2.88;89.53;101975.06;4995941;28;20474;-74
2022/03/22 03:15:16;;;;;;;20.30;14.65;;;3.70;77.70;;;2.76;90.02;101974.66;5013533;28;20099;-75
2022/03/22 03:17:43;;;;;;;21.57;14.77;;;3.50;78.20;;;2.45;89.68;101970.97;4996467;28;20642;-75
2022/03/22 03:20:10;;;;;;;17.50;13.13;;;5.00;78.30;;;2.39;89.70;101974.25;5014593;28;20052;-74
2022/03/22 03:22:37;;;;;;;18.92;13.90;;;3.40;77.80;;;2.30;94.04;101969.59;5013536;28;20093;-75
2022/03/22 03:25:08;;;;;;;20.33;14.30;;;3.20;79.10;;;2.21;98.97;101969.28;5012973;28;20057;-76
2022/03/22 03:27:36;;;;;;;22.77;14.45;;;3.20;82.40;;;2.08;95.57;101973.13;5013815;28;20823;-75
2022/03/22 03:30:05;;;;;;;19.83;14.70;;;3.20;80.80;;;2.06;94.62;101979.97;5012971;28;20041;-75
2022/03/22 03:32:34;;;;;;;18.55;13.45;;;3.00;80.60;;;2.21;94.76;101975.34;5002918;28;20052;-75
2022/03/22 03:35:03;;;;;;;20.13;14.55;;;2.80;82.50;;;2.24;96.53;101977.19;4993003;28;20133;-74
2022/03/22 03:37:35;;;;;;;18.80;14.48;;;2.90;84.10;;;2.29;95.63;101978.22;5009286;28;20046;-75
2022/03/22 03:40:04;;;;;;;21.92;14.80;;;2.90;84.60;;;2.27;97.48;101979.88;4993800;28;20109;-75
2022/03/22 03:42:32;;;;;;;22.77;14.57;;;2.90;85.30;;;2.20;100.00;101983.09;4992830;28;20782;-76
2022/03/22 03:47:45;;;;;;;18.83;13.90;;;2.80;88.60;;;1.93;100.00;101987.31;4990707;28;20100;-76
2022/03/22 03:50:12;;;;;;;18.20;14.18;;;2.80;89.20;;;1.92;100.00;101982.06;5013266;28;20059;-77
2022/03/22 03:52:39;;;;;;;17.88;13.02;;;5.20;90.50;;;1.84;100.00;101989.56;5011755;28;20052;-76
2022/03/22 03:55:07;;;;;;;19.58;14.52;;;2.80;89.60;;;1.85;100.00;101996.53;5009613;28;20426;-75
2022/03/22 03:57:36;;;;;;;19.48;14.00;;;2.70;90.00;;;1.82;100.00;101994.69;5009157;28;20050;-77
2022/03/22 04:00:07;;;;;;;20.05;14.85;;;2.70;90.60;;;1.90;100.00;101997.59;5010003;28;20104;-76
2022/03/22 04:02:41;;;;;;;20.60;14.38;;;2.60;90.70;;;1.93;100.00;102000.28;4993741;28;20119;-76
2022/03/22 04:05:09;;;;;;;22.20;15.63;;;2.60;91.10;;;2.03;100.00;102001.53;5008830;28;20053;-77
2022/03/22 04:07:54;;;;;;;20.23;14.65;;;3.60;92.40;;;1.86;100.00;102005.19;5010622;28;20638;-76
2022/03/22 04:10:21;;;;;;;20.83;15.93;;;2.50;90.90;;;1.63;99.21;102000.00;5008780;28;20049;-76
2022/03/22 04:12:49;;;;;;;22.40;15.68;;;4.40;91.10;;;1.67;100.00;102000.19;5008941;28;20045;-76
2022/03/22 04:15:16;;;;;;;18.85;13.60;;;2.40;91.20;;;1.41;100.00;102001.75;5010183;28;20088;-76
2022/03/22 04:17:43;;;;;;;18.67;13.95;;;2.60;90.50;;;1.61;100.00;102009.44;5008977;28;20121;-76
2022/03/22 04:20:11;;;;;;;21.60;14.68;;;2.80;92.70;;;1.62;100.00;102004.28;5008887;28;20093;-76
2022/03/22 04:22:38;;;;;;;22.63;14.32;;;2.40;93.40;;;1.53;100.00;102003.94;5008367;28;20045;-75
2022/03/22 04:25:23;;;;;;;19.02;13.85;;;2.40;93.50;;;1.56;100.00;102006.66;5008565;28;20058;-75
2022/03/22 04:33:39;;;;;;;21.20;14.82;;;2.30;93.30;;;1.32;100.00;102012.63;5007745;28;20050;-75
2022/03/22 04:36:06;;;;;;;17.13;13.82;;;2.30;93.80;;;1.32;100.00;102016.94;5009623;28;20054;-76
2022/03/22 04:38:34;;;;;;;18.83;14.93;;;2.20;93.40;;;1.33;100.00;102018.72;5010543;28;20129;-76
2022/03/22 04:41:10;;;;;;;20.00;15.25;;;2.20;93.30;;;1.24;100.00;102020.09;5010087;28;20069;-77
2022/03/22 04:43:37;;;;;;;18.98;14.23;;;3.20;92.60;;;1.14;100.00;102023.16;5008038;28;20046;-76
2022/03/22 04:46:04;;;;;;;19.27;13.68;;;2.20;92.60;;;1.02;100.00;102028.72;5024456;28;20427;-76
2022/03/22 04:48:31;;;;;;;21.58;14.80;;;2.10;92.60;;;0.97;100.00;102025.03;5008219;28;20052;-75
2022/03/22 04:56:46;;;;;;;25.63;16.85;;;1.90;94.30;;;1.18;100.00;102021.56;5008767;28;20041;-76
2022/03/22 04:59:19;;;;;;;20.13;15.57;;;3.60;95.70;;;1.32;100.00;102024.72;5009366;28;20042;-75
2022/03/22 05:01:46;;;;;;;23.23;17.30;;;1.80;95.10;;;1.23;100.00;102025.22;5006290;28;20069;-75
2022/03/22 05:04:13;;;;;;;22.95;17.17;;;4.00;95.80;;;1.23;100.00;102025.22;5023395;28;20042;-75
2022/03/22 05:06:41;;;;;;;23.60;16.80;;;3.00;95.00;;;1.12;100.00;102019.59;5009056;28;20057;-76
2022/03/22 05:09:10;;;;;;;26.70;16.27;;;1.80;95.10;;;1.18;100.00;102022.44;5008300;28;20491;-76
2022/03/22 05:11:37;;;;;;;20.85;15.70;;;2.10;95.20;;;1.21;100.00;102024.28;5004054;28;20089;-75
2022/03/22 05:14:05;;;;;;;21.17;14.93;;;2.40;95.60;;;1.30;100.00;102023.78;5006177;28;20404;-73
2022/03/22 05:16:33;;;;;;;20.38;15.30;;;3.70;96.10;;;1.29;100.00;102025.47;5007763;28;20042;-75
2022/03/22 05:19:00;;;;;;;24.88;16.70;;;2.00;95.80;;;1.37;100.00;102034.47;5009228;28;20041;-75
2022/03/22 05:21:27;;;;;;;18.88;14.02;;;2.00;96.80;;;1.34;100.00;102034.34;5008161;28;20045;-75
2022/03/22 05:23:55;;;;;;;19.95;14.32;;;2.20;96.60;;;1.26;100.00;102030.53;4990772;28;20181;-75
2022/03/22 05:26:22;;;;;;;19.85;14.55;;;2.10;96.70;;;1.22;100.00;102039.03;5008006;28;20113;-75
2022/03/22 05:28:52;;;;;;;20.35;15.23;;;2.20;96.70;;;1.16;100.00;102034.47;4992561;28;20491;-75
2022/03/22 05:31:21;;;;;;;20.15;15.35;;;2.20;96.70;;;1.08;100.00;102036.72;5008765;28;20057;-75
2022/03/22 05:33:49;;;;;;;22.13;16.08;;;2.10;96.10;;;1.11;100.00;102038.59;4993019;28;20042;-77
2022/03/22 05:36:16;;;;;;;19.00;14.05;;;1.90;96.70;;;1.02;100.00;102038.19;5007639;28;20487;-77
2022/03/22 05:38:44;;;;;;;20.85;14.70;;;1.90;96.70;;;1.03;100.00;102033.06;5009109;28;20030;-77
2022/03/22 05:41:11;;;;;;;21.17;14.95;;;2.60;96.60;;;0.96;100.00;102036.22;5008555;28;20048;-78
2022/03/22 05:43:38;;;;;;;19.77;12.98;;;2.50;96.60;;;0.87;100.00;102036.72;5007986;28;20042;-77
2022/03/22 05:46:06;;;;;;;23.00;14.20;;;1.90;96.10;;;0.88;100.00;102046.25;5022007;28;20050;-75
2022/03/22 05:48:33;;;;;;;19.50;15.18;;;1.90;96.40;;;0.99;100.00;102045.00;4987328;28;20053;-77
2022/03/22 05:51:00;;;;;;;24.80;14.85;;;1.80;96.50;;;0.98;100.00;102051.03;5007978;28;20040;-77
2022/03/22 05:53:27;;;;;;;22.40;14.27;;;1.70;96.10;;;0.93;100.00;102049.03;5008639;28;20415;-77
2022/03/22 05:55:54;;;;;;;20.20;15.05;;;1.70;96.70;;;0.73;100.00;102048.19;5007690;28;20034;-77
2022/03/22 05:58:21;;;;;;;21.77;14.98;;;1.80;96.30;;;0.77;100.00;102050.06;5003889;28;20046;-77
2022/03/22 06:00:48;;;;;;;21.70;16.52;;;1.80;96.00;;;0.76;100.00;102045.72;4989800;28;20046;-75
2022/03/22 06:03:15;;;;;;;36.42;21.20;;;1.70;95.90;;;0.92;100.00;102049.88;5008148;28;20056;-75
2022/03/22 06:05:42;;;;;;;39.05;21.00;;;1.60;96.30;;;0.97;100.00;102051.84;5007094;28;20053;-76
2022/03/22 06:08:10;;;;;;;23.38;16.15;;;1.70;95.90;;;0.95;100.00;102057.78;4991289;28;20053;-76
2022/03/22 06:10:38;;;;;;;30.25;18.50;;;1.70;96.10;;;1.00;100.00;102053.66;5007488;28;20080;-75
2022/03/22 06:13:05;;;;;;;24.40;16.27;;;1.80;96.00;;;0.95;100.00;102050.91;5007136;28;20054;-74
2022/03/22 06:15:32;;;;;;;24.67;17.58;;;4.60;97.20;;;0.99;100.00;102051.88;5024476;28;20566;-75
2022/03/22 06:18:05;;;;;;;21.80;15.55;;;1.90;96.80;;;1.12;100.00;102053.31;5008397;28;20486;-75
2022/03/22 06:20:39;;;;;;;24.52;16.95;;;1.80;96.50;;;1.09;100.00;102055.75;4992160;28;20052;-76
2022/03/22 06:23:10;;;;;;;23.23;14.73;;;1.80;96.00;;;1.05;100.00;102051.25;5009287;28;20061;-76
2022/03/22 06:25:39;;;;;;;27.67;17.00;;;1.80;95.90;;;1.11;100.00;102061.91;5007098;28;20144;-75
2022/03/22 06:28:09;;;;;;;24.17;16.85;;;1.90;96.60;;;1.11;100.00;102057.59;4991026;28;20046;-76
2022/03/22 06:30:37;;;;;;;;;;;1.80;96.70;;;1.31;100.00;102060.13;5007830;28;20046;-76
2022/03/22 06:33:17;;;;;;;87.25;55.28;;;2.00;97.20;;;1.48;100.00;102063.44;5006680;28;20007;-75
2022/03/22 06:35:46;;;;;;;83.22;47.28;;;2.10;97.10;;;1.42;100.00;102064.06;5007209;28;20042;-77
2022/03/22 06:38:13;;;;;;;129.20;75.57;;;3.10;96.90;;;1.50;100.00;102063.50;4990887;28;20046;-76
2022/03/22 06:40:41;;;;;;;101.97;66.03;;;2.10;96.90;;;1.62;100.00;102071.75;5008511;28;20038;-77
2022/03/22 06:43:12;;;;;;;89.43;63.58;;;2.80;97.20;;;1.60;100.00;102067.34;5006531;28;20053;-77
2022/03/22 06:45:39;;;;;;;48.15;31.83;;;4.00;97.20;;;1.67;100.00;102071.94;5007325;28;20473;-76
2022/03/22 06:48:08;;;;;;;43.33;25.52;;;2.40;96.60;;;1.76;100.00;102069.75;5006508;28;20843;-76
2022/03/22 06:50:37;;;;;;;39.63;25.75;;;2.40;96.80;;;2.00;100.00;102057.66;5007245;28;20056;-77
2022/03/22 06:53:06;;;;;;;32.60;21.73;;;2.50;96.90;;;2.21;100.00;102065.38;5007025;28;20128;-75
2022/03/22 06:55:34;;;;;;;28.15;18.98;;;4.80;97.10;;;2.34;100.00;102065.03;5007721;28;20053;-76
2022/03/22 06:58:02;;;;;;;28.00;18.70;;;2.60;96.00;;;2.48;100.00;102054.22;5007407;28;20046;-76
2022/03/22 07:00:31;;;;;;;21.70;16.55;;;2.80;95.80;;;2.57;100.00;102059.78;5004067;28;20050;-75
2022/03/22 07:03:01;;;;;;;21.70;15.10;;;2.80;95.30;;;2.74;100.00;102060.38;5007135;28;20100;-75
2022/03/22 07:05:29;;;;;;;21.10;14.45;;;3.10;95.30;;;2.90;100.00;102059.19;5006696;28;20407;-75
2022/03/22 07:07:57;;;;;;;18.85;14.70;;;3.20;95.30;;;3.02;100.00;102069.13;5007155;28;20252;-74
2022/03/22 07:10:26;;;;;;;19.23;13.57;;;3.30;94.70;;;3.18;99.92;102056.66;5007721;28;20484;-75
2022/03/22 07:13:04;;;;;;;18.50;13.85;;;4.30;94.90;;;3.35;100.00;102065.91;5006875;28;20050;-74
2022/03/22 07:15:37;;;;;;;23.08;15.55;;;3.70;94.80;;;3.47;98.86;102059.34;5007062;28;20045;-75
2022/03/22 07:18:08;;;;;;;17.45;13.35;;;3.70;94.40;;;3.59;96.09;102054.53;5007494;28;20247;-76
2022/03/22 07:20:36;;;;;;;18.65;13.63;;;4.90;94.40;;;3.70;92.88;102060.06;5007643;28;20049;-75
2022/03/22 07:23:04;;;;;;;19.38;14.98;;;4.00;93.70;;;3.83;91.58;102063.97;5007766;28;20737;-75
2022/03/22 07:25:34;;;;;;;17.27;13.27;;;4.10;93.20;;;3.94;91.29;102062.56;5007363;28;20567;-74
2022/03/22 07:28:02;;;;;;;18.00;13.25;;;4.20;93.40;;;4.09;88.67;102063.88;5001587;28;20050;-75
2022/03/22 07:30:29;;;;;;;21.45;15.02;;;4.40;93.20;;;4.24;88.28;102069.53;4991499;28;20056;-75
2022/03/22 07:32:57;;;;;;;18.30;14.40;;;4.50;93.20;;;4.40;87.07;102065.66;4992510;28;20042;-75
2022/03/22 07:35:24;;;;;;;18.05;14.02;;;5.40;93.20;;;4.49;86.33;102058.94;4992499;28;20038;-75
2022/03/22 07:37:56;;;;;;;19.38;14.45;;;5.20;93.00;;;4.66;85.03;102067.25;4992787;28;20531;-76
2022/03/22 07:40:23;;;;;;;21.52;15.98;;;4.80;92.70;;;4.72;81.93;102069.13;4991175;28;20502;-76
2022/03/22 07:42:51;;;;;;;20.48;13.55;;;4.90;92.20;;;4.93;82.82;102068.84;4990617;28;20049;-76
2022/03/22 07:45:21;;;;;;;17.52;12.40;;;5.10;92.60;;;5.22;80.95;102066.97;5006475;28;20046;-77
2022/03/22 07:47:48;;;;;;;18.67;13.55;;;5.30;92.50;;;5.48;79.41;102074.59;5011869;28;20507;-75
2022/03/22 07:53:05;;;;;;;20.17;12.55;;;5.70;91.90;;;5.84;73.21;102072.78;5003424;28;20474;-74
2022/03/22 07:55:43;;;;;;;17.90;14.05;;;6.00;91.40;;;6.03;68.26;102065.44;5014049;28;20050;-76
2022/03/22 07:58:11;;;;;;;23.35;13.95;;;6.10;90.30;;;6.18;66.97;102062.25;4994784;28;20041;-74
2022/03/22 08:00:41;;;;;;;20.20;12.43;;;6.30;90.10;;;6.23;63.87;102066.75;5012482;28;20088;-75
2022/03/22 08:03:12;;;;;;;14.15;12.25;;;6.60;88.90;;;6.30;63.09;102069.47;5007480;28;20026;-76
2022/03/22 08:05:41;;;;;;;21.50;13.40;;;6.50;87.80;;;6.36;63.12;102073.09;4998050;28;20053;-76
2022/03/22 08:08:08;;;;;;;20.48;13.60;;;6.50;87.30;;;6.46;63.11;102078.53;5011924;28;20100;-76
2022/03/22 08:10:56;;;;;;;19.05;13.02;;;6.60;87.20;;;6.53;61.86;102072.56;5027714;28;20065;-75
2022/03/22 08:13:23;;;;;;;19.77;13.10;;;6.60;86.60;;;6.62;61.03;102079.72;4994062;28;20596;-74
2022/03/22 08:15:50;;;;;;;24.30;14.63;;;6.80;85.90;;;6.69;60.86;102084.22;5012300;28;20073;-74
2022/03/22 08:18:17;;;;;;;17.73;13.93;;;6.80;85.70;;;6.78;60.30;102089.63;5027301;28;20046;-74
2022/03/22 08:20:44;;;;;;;18.55;12.77;;;6.90;85.30;;;6.87;58.92;102085.44;5010159;28;20132;-75
2022/03/22 08:23:12;;;;;;;20.40;13.60;;;7.00;84.40;;;6.98;59.49;102081.28;5010196;28;20076;-75
2022/03/22 08:25:46;;;;;;;18.98;12.52;;;7.10;84.40;;;7.02;58.63;102077.88;5026252;28;20053;-75
2022/03/22 08:28:14;;;;;;;18.35;13.35;;;7.20;84.10;;;7.11;58.18;102079.75;4994663;28;20050;-75
2022/03/22 08:30:44;;;;;;;16.95;12.15;;;7.20;83.20;;;7.27;57.77;102073.06;5009767;28;20061;-75
2022/03/22 08:33:12;;;;;;;17.20;13.48;;;7.30;83.10;;;7.39;56.83;102077.63;5009907;28;20049;-74
2022/03/22 08:35:46;;;;;;;17.20;12.27;;;7.80;82.50;;;7.45;54.81;102076.84;5010224;28;20048;-75
2022/03/22 08:38:21;;;;;;;19.08;12.48;;;7.60;80.80;;;7.51;52.93;102071.69;5011087;28;20048;-75
2022/03/22 08:40:52;;;;;;;17.08;12.15;;;7.50;78.70;;;7.59;52.46;102070.09;5008639;28;20052;-73
2022/03/22 08:43:19;;;;;;;16.70;11.98;;;7.60;77.60;;;7.65;51.63;102071.94;5009965;28;20100;-76
2022/03/22 08:45:47;;;;;;;16.80;12.40;;;7.70;76.30;;;7.75;51.27;102071.19;5008812;28;20076;-75
2022/03/22 08:48:31;;;;;;;17.80;13.57;;;7.80;76.20;;;7.83;51.53;102070.44;5023531;28;20045;-75
2022/03/22 08:51:05;;;;;;;16.95;13.10;;;7.90;75.70;;;7.97;51.17;102074.16;5009661;28;20049;-75
2022/03/22 08:53:32;;;;;;;18.10;14.40;;;8.00;75.30;;;8.05;51.07;102072.50;5008202;28;20136;-75
2022/03/22 08:56:03;;;;;;;19.08;12.98;;;8.10;75.80;;;8.20;49.82;102070.94;4991320;28;20128;-73
2022/03/22 08:58:31;;;;;;;16.50;13.32;;;8.20;74.10;;;8.28;49.88;102079.81;5008625;28;20117;-75
2022/03/22 09:00:58;;;;;;;18.42;13.00;;;8.30;73.50;;;8.38;49.29;102071.19;5008595;28;20148;-75
2022/03/22 09:03:26;;;;;;;17.92;12.90;;;9.20;73.30;;;8.45;49.77;102066.03;5021353;28;20137;-76
2022/03/22 09:06:11;;;;;;;19.70;13.45;;;8.50;72.70;;;8.54;48.42;102067.91;5005413;28;20050;-75
2022/03/22 09:08:41;;;;;;;15.95;12.93;;;8.80;71.30;;;8.67;48.74;102064.56;4990940;28;20105;-73
2022/03/22 09:11:09;;;;;;;17.58;12.80;;;8.70;71.20;;;8.74;48.76;102061.13;4993504;28;20120;-75
2022/03/22 09:13:40;;;;;;;15.25;12.30;;;8.70;71.00;;;8.91;48.64;102066.59;5008046;28;20080;-74
2022/03/22 09:16:12;;;;;;;;;;;8.90;70.70;;;9.00;48.29;102063.16;5025375;28;20068;-76
2022/03/22 09:18:39;;;;;;;17.63;13.45;;;9.00;70.50;;;9.04;47.81;102064.94;5008310;28;20453;-74
2022/03/22 09:21:06;;;;;;;19.73;13.98;;;9.10;69.60;;;9.12;47.64;102065.00;5009651;28;20129;-75
2022/03/22 09:23:36;;;;;;;16.63;14.00;;;9.10;69.20;;;9.24;47.48;102069.50;5007360;28;20050;-72
2022/03/22 09:26:06;;;;;;;;;;;9.20;68.70;;;9.34;47.76;102057.31;5024315;28;20045;-73
2022/03/22 09:28:34;;;;;;;18.70;13.38;;;9.30;68.80;;;9.39;47.00;102062.59;5008319;28;19933;-75
2022/03/22 09:31:07;;;;;;;18.70;13.48;;;9.40;67.80;;;9.44;46.94;102066.16;5007486;28;20060;-74
2022/03/22 09:33:34;;;;;;;17.65;12.75;;;9.70;67.80;;;9.54;46.98;102075.88;4997037;28;20117;-76
2022/03/22 09:36:01;;;;;;;17.27;12.32;;;10.00;67.60;;;9.64;47.39;102072.44;4988374;28;20054;-74
2022/03/22 09:38:29;;;;;;;16.77;13.10;;;10.80;68.40;;;9.77;46.74;102067.28;4974286;28;20045;-77
2022/03/22 09:40:58;;;;;;;15.38;12.90;;;9.70;67.00;;;9.96;46.10;102062.13;4990541;28;20046;-76
2022/03/22 09:43:28;;;;;;;20.95;14.95;;;9.80;66.10;;;10.00;45.48;102063.91;4990610;28;20042;-75
2022/03/22 09:45:57;;;;;;;22.38;15.02;;;9.90;65.60;;;10.08;45.88;102059.59;4989409;28;20527;-76
2022/03/22 09:48:42;;;;;;;17.13;13.70;;;10.00;65.70;;;10.16;45.89;102057.00;4971825;28;20042;-76
2022/03/22 09:53:56;;;;;;;18.70;13.60;;;10.20;65.10;;;10.49;45.39;102055.41;4968889;28;20126;-76
2022/03/22 09:56:26;;;;;;;17.75;14.10;;;10.80;64.90;;;10.56;44.29;102061.56;4952627;28;20126;-75
2022/03/22 09:58:53;;;;;;;19.55;14.23;;;10.90;63.50;;;10.74;44.09;102055.44;4970101;28;20118;-77
2022/03/22 10:01:21;;;;;;;17.35;14.05;;;10.60;63.00;;;10.79;44.04;102048.47;4970236;28;20050;-77
2022/03/22 10:04:01;;;;;;;17.55;14.77;;;11.20;62.70;;;10.78;43.71;102050.19;4968207;28;20039;-76
2022/03/22 10:06:32;;;;;;;22.52;15.15;;;10.80;61.90;;;10.94;43.68;102041.47;4968724;28;20579;-76
2022/03/22 10:09:01;;;;;;;20.98;14.52;;;10.80;61.80;;;11.05;43.77;102050.25;4953490;28;20141;-76
2022/03/22 10:11:42;;;;;;;16.33;13.85;;;10.90;61.90;;;11.09;42.81;102048.50;4961262;28;20061;-75
2022/03/22 10:14:13;;;;;;;22.25;13.68;;;11.00;60.30;;;11.08;42.70;102042.34;4990541;28;20158;-76
2022/03/22 10:16:50;;;;;;;23.42;15.38;;;11.10;59.80;;;11.21;42.93;102043.22;4991236;28;20046;-77
2022/03/22 10:19:25;;;;;;;16.23;12.00;;;11.20;60.50;;;11.47;42.52;102044.97;4992594;28;20050;-76
2022/03/22 10:21:53;;;;;;;16.98;13.73;;;11.30;59.60;;;11.56;42.80;102036.19;4992337;28;20042;-75
2022/03/22 10:24:21;;;;;;;16.90;13.43;;;11.40;60.10;;;11.70;42.40;102038.78;4987013;28;20049;-76
2022/03/22 10:26:51;;;;;;;19.10;15.10;;;11.50;59.80;;;11.86;41.62;102039.63;4991463;28;20133;-75
2022/03/22 10:29:19;;;;;;;18.95;13.85;;;12.70;58.80;;;12.00;40.54;102032.56;4989229;28;20054;-75
2022/03/22 10:31:46;;;;;;;16.77;13.55;;;11.80;57.70;;;12.17;41.57;102037.81;4994974;28;20527;-76
2022/03/22 10:34:15;;;;;;;17.10;12.98;;;12.00;58.10;;;12.28;41.17;102028.97;4992803;28;20050;-76
2022/03/22 10:36:43;;;;;;;16.88;14.30;;;12.30;58.00;;;12.26;40.56;102028.13;4987483;28;20049;-77
2022/03/22 10:39:12;;;;;;;17.60;14.65;;;12.20;56.50;;;12.43;40.17;102028.91;4988270;28;20646;-74
2022/03/22 10:41:45;;;;;;;17.35;13.35;;;12.20;56.30;;;12.62;40.21;102026.16;4987057;28;20042;-71